LEBZ/BJZ METAR and TAF weather

Enter ICAO airport designator
Station Type Date Time Source
LEBZ METAR 2023/02/06 20:00 UTC NOAA

LEBZ 062000Z 28001KT CAVOK 09/02 Q1019


Station Type Date Time Source
LEBZ Decoded METAR 2023/02/06 20:00 UTC NOAA

Badajoz / Talavera La Real, Spain (LEBZ) 38-53N 006-49W 192M
Feb 06, 2023 - 03:00 PM EST / 2023.02.06 2000 UTC
Wind: from the W (280 degrees) at 1 MPH (1 KT):0
Visibility: greater than 7 mile(s):0
Temperature: 48 F (9 C)
Dew Point: 35 F (2 C)
Relative Humidity: 61%
Pressure (altimeter): 30.09 in. Hg (1019 hPa)
ob: LEBZ 062000Z 28001KT CAVOK 09/02 Q1019
cycle: 20

Station Type Date Time Source
LEBZ TAF 2023/02/06 21:27 UTC NOAA

TAF TAF LEBZ 062000Z 0621/0721 07007KT 9999 FEW035 TX14/0715Z TN03/0706Z

Example: see airport list